Aviation Digital Data Service (ADDS)

Output produced by METARs form (1913 UTC 18 April 2019)
found at http://www.aviationweather.gov/metar/data/
 
METAR text: VYMD 181730Z 18005KT 5000 BKN020 FEW025CB 29/18 Q1005
Conditions at: VYMD (MANDALAY , MM) observed 1730 UTC 18 April 2019
Temperature: 29.0°C (84°F)
Dewpoint: 18.0°C (64°F) [RH = 52%]
Pressure (altimeter): 29.68 inches Hg (1005.0 mb)
Winds: from the S (180 degrees) at 6 MPH (5 knots; 2.6 m/s)
Visibility: 3 miles ( 5 km)
Ceiling: 2000 feet AGL
Clouds: broken clouds at 2000 feet AGL
few clouds at 2500 feet AGL
Weather: no significant weather observed at this time

METAR text: VYMD 181530Z 12009KT 5000 BKN020 FEW025CB 30/18 Q1005
Conditions at: VYMD (MANDALAY , MM) observed 1530 UTC 18 April 2019
Temperature: 30.0°C (86°F)
Dewpoint: 18.0°C (64°F) [RH = 49%]
Pressure (altimeter): 29.68 inches Hg (1005.0 mb)
Winds: from the ESE (120 degrees) at 10 MPH (9 knots; 4.6 m/s)
Visibility: 3 miles ( 5 km)
Ceiling: 2000 feet AGL
Clouds: broken clouds at 2000 feet AGL
few clouds at 2500 feet AGL
Weather: no significant weather observed at this time

METAR text: VYMD 181430Z 14006KT 5000 BKN020 FEW025CB 32/18 Q1005
Conditions at: VYMD (MANDALAY , MM) observed 1430 UTC 18 April 2019
Temperature: 32.0°C (90°F)
Dewpoint: 18.0°C (64°F) [RH = 43%]
Pressure (altimeter): 29.68 inches Hg (1005.0 mb)
Winds: from the SE (140 degrees) at 7 MPH (6 knots; 3.1 m/s)
Visibility: 3 miles ( 5 km)
Ceiling: 2000 feet AGL
Clouds: broken clouds at 2000 feet AGL
few clouds at 2500 feet AGL
Weather: no significant weather observed at this time

METAR text: VYMD 181330Z 36005KT 5000 LTG BKN020 FEW025CB 33/21 Q1004
Conditions at: VYMD (MANDALAY , MM) observed 1330 UTC 18 April 2019
Temperature: 33.0°C (91°F)
Dewpoint: 21.0°C (70°F) [RH = 49%]
Pressure (altimeter): 29.65 inches Hg (1004.0 mb)
Winds: from the N (360 degrees) at 6 MPH (5 knots; 2.6 m/s)
Visibility: 3 miles ( 5 km)
Ceiling: 2000 feet AGL
Clouds: broken clouds at 2000 feet AGL
few clouds at 2500 feet AGL
Weather: no significant weather observed at this time

METAR text: VYMD 181230Z 36005KT 6000 SCT020 FEW120 36/20 Q1004
Conditions at: VYMD (MANDALAY , MM) observed 1230 UTC 18 April 2019
Temperature: 36.0°C (97°F)
Dewpoint: 20.0°C (68°F) [RH = 39%]
Pressure (altimeter): 29.65 inches Hg (1004.0 mb)
Winds: from the N (360 degrees) at 6 MPH (5 knots; 2.6 m/s)
Visibility: 4 miles ( 6 km)
Ceiling: at least 12,000 feet AGL
Clouds: scattered clouds at 2000 feet AGL
few clouds at 12000 feet AGL
Weather: no significant weather observed at this time

METAR text: VYMD 181130Z 06005KT 6000 SCT020 FEW120 38/24 Q1003
Conditions at: VYMD (MANDALAY , MM) observed 1130 UTC 18 April 2019
Temperature: 38.0°C (100°F)
Dewpoint: 24.0°C (75°F) [RH = 45%]
Pressure (altimeter): 29.62 inches Hg (1003.0 mb)
Winds: from the ENE (60 degrees) at 6 MPH (5 knots; 2.6 m/s)
Visibility: 4 miles ( 6 km)
Ceiling: at least 12,000 feet AGL
Clouds: scattered clouds at 2000 feet AGL
few clouds at 12000 feet AGL
Weather: no significant weather observed at this time

METAR text: VYMD 181030Z 04005KT 8000 BKN020 FEW120 40/21 Q1003
Conditions at: VYMD (MANDALAY , MM) observed 1030 UTC 18 April 2019
Temperature: 40.0°C (104°F)
Dewpoint: 21.0°C (70°F) [RH = 34%]
Pressure (altimeter): 29.62 inches Hg (1003.0 mb)
Winds: from the NE (40 degrees) at 6 MPH (5 knots; 2.6 m/s)
Visibility: 5 miles ( 8 km)
Ceiling: 2000 feet AGL
Clouds: broken clouds at 2000 feet AGL
few clouds at 12000 feet AGL
Weather: no significant weather observed at this time

METAR text: VYMD 180930Z 16008KT 8000 BKN020 FEW025CB 40/21 Q1003
Conditions at: VYMD (MANDALAY , MM) observed 0930 UTC 18 April 2019
Temperature: 40.0°C (104°F)
Dewpoint: 21.0°C (70°F) [RH = 34%]
Pressure (altimeter): 29.62 inches Hg (1003.0 mb)
Winds: from the SSE (160 degrees) at 9 MPH (8 knots; 4.1 m/s)
Visibility: 5 miles ( 8 km)
Ceiling: 2000 feet AGL
Clouds: broken clouds at 2000 feet AGL
few clouds at 2500 feet AGL
Weather: no significant weather observed at this time

METAR text: VYMD 180830Z 28007KT 7000 BKN020 FEW120 41/18 Q1004
Conditions at: VYMD (MANDALAY , MM) observed 0830 UTC 18 April 2019
Temperature: 41.0°C (106°F)
Dewpoint: 18.0°C (64°F) [RH = 27%]
Pressure (altimeter): 29.65 inches Hg (1004.0 mb)
Winds: from the W (280 degrees) at 8 MPH (7 knots; 3.6 m/s)
Visibility: 4 miles ( 7 km)
Ceiling: 2000 feet AGL
Clouds: broken clouds at 2000 feet AGL
few clouds at 12000 feet AGL
Weather: no significant weather observed at this time

METAR text: VYMD 180730Z 25007KT 8000 SCT020 41/20 Q1005
Conditions at: VYMD (MANDALAY , MM) observed 0730 UTC 18 April 2019
Temperature: 41.0°C (106°F)
Dewpoint: 20.0°C (68°F) [RH = 30%]
Pressure (altimeter): 29.68 inches Hg (1005.0 mb)
Winds: from the WSW (250 degrees) at 8 MPH (7 knots; 3.6 m/s)
Visibility: 5 miles ( 8 km)
Ceiling: at least 12,000 feet AGL
Clouds: scattered clouds at 2000 feet AGL
Weather: no significant weather observed at this time

METAR text: VYMD 180630Z 22010KT 8000 SCT020 40/23 Q1007
Conditions at: VYMD (MANDALAY , MM) observed 0630 UTC 18 April 2019
Temperature: 40.0°C (104°F)
Dewpoint: 23.0°C (73°F) [RH = 38%]
Pressure (altimeter): 29.73 inches Hg (1007.0 mb)
Winds: from the SW (220 degrees) at 12 MPH (10 knots; 5.1 m/s)
Visibility: 5 miles ( 8 km)
Ceiling: at least 12,000 feet AGL
Clouds: scattered clouds at 2000 feet AGL
Weather: no significant weather observed at this time

METAR text: VYMD 180530Z 18008G20KT 8000 NSC 40/12 Q1008
Conditions at: VYMD (MANDALAY , MM) observed 0530 UTC 18 April 2019
Temperature: 40.0°C (104°F)
Dewpoint: 12.0°C (54°F) [RH = 19%]
Pressure (altimeter): 29.76 inches Hg (1008.0 mb)
Winds: from the S (180 degrees) at 9 MPH (8 knots; 4.1 m/s)
gusting to 23 MPH (20 knots; 10.3 m/s)
Visibility: 5 miles ( 8 km)
Ceiling: at least 12,000 feet AGL
Clouds: sky clear below 12,000 feet AGL
Weather: no significant weather observed at this time

METAR text: VYMD 180430Z 15008G20KT 7000 FEW020 38/20 Q1009
Conditions at: VYMD (MANDALAY , MM) observed 0430 UTC 18 April 2019
Temperature: 38.0°C (100°F)
Dewpoint: 20.0°C (68°F) [RH = 35%]
Pressure (altimeter): 29.79 inches Hg (1009.0 mb)
Winds: from the SSE (150 degrees) at 9 MPH (8 knots; 4.1 m/s)
gusting to 23 MPH (20 knots; 10.3 m/s)
Visibility: 4 miles ( 7 km)
Ceiling: at least 12,000 feet AGL
Clouds: few clouds at 2000 feet AGL
Weather: no significant weather observed at this time

METAR text: VYMD 180330Z 17008G20KT 7000 FEW020 36/24 Q1010
Conditions at: VYMD (MANDALAY , MM) observed 0330 UTC 18 April 2019
Temperature: 36.0°C (97°F)
Dewpoint: 24.0°C (75°F) [RH = 50%]
Pressure (altimeter): 29.82 inches Hg (1010.0 mb)
Winds: from the S (170 degrees) at 9 MPH (8 knots; 4.1 m/s)
gusting to 23 MPH (20 knots; 10.3 m/s)
Visibility: 4 miles ( 7 km)
Ceiling: at least 12,000 feet AGL
Clouds: few clouds at 2000 feet AGL
Weather: no significant weather observed at this time

METAR text: VYMD 180230Z 18008G20KT 6000 HZ FEW020 33/19 Q1009
Conditions at: VYMD (MANDALAY , MM) observed 0230 UTC 18 April 2019
Temperature: 33.0°C (91°F)
Dewpoint: 19.0°C (66°F) [RH = 44%]
Pressure (altimeter): 29.79 inches Hg (1009.0 mb)
Winds: from the S (180 degrees) at 9 MPH (8 knots; 4.1 m/s)
gusting to 23 MPH (20 knots; 10.3 m/s)
Visibility: 4 miles ( 6 km)
Ceiling: at least 12,000 feet AGL
Clouds: few clouds at 2000 feet AGL
Weather: HZ  (haze)

METAR text: VYMD 180130Z 14004KT 6000 HZ SCT020 30/18 Q1009
Conditions at: VYMD (MANDALAY , MM) observed 0130 UTC 18 April 2019
Temperature: 30.0°C (86°F)
Dewpoint: 18.0°C (64°F) [RH = 49%]
Pressure (altimeter): 29.79 inches Hg (1009.0 mb)
Winds: from the SE (140 degrees) at 5 MPH (4 knots; 2.1 m/s)
Visibility: 4 miles ( 6 km)
Ceiling: at least 12,000 feet AGL
Clouds: scattered clouds at 2000 feet AGL
Weather: HZ  (haze)

METAR text: VYMD 180030Z 18003KT 6000 HZ SCT020 26/20 Q1008
Conditions at: VYMD (MANDALAY , MM) observed 0030 UTC 18 April 2019
Temperature: 26.0°C (79°F)
Dewpoint: 20.0°C (68°F) [RH = 70%]
Pressure (altimeter): 29.76 inches Hg (1008.0 mb)
Winds: from the S (180 degrees) at 3 MPH (3 knots; 1.5 m/s)
Visibility: 4 miles ( 6 km)
Ceiling: at least 12,000 feet AGL
Clouds: scattered clouds at 2000 feet AGL
Weather: HZ  (haze)

METAR text: VYMD 172330Z 17005KT 5000 HZ BKN020 25/19 Q1007
Conditions at: VYMD (MANDALAY , MM) observed 2330 UTC 17 April 2019
Temperature: 25.0°C (77°F)
Dewpoint: 19.0°C (66°F) [RH = 69%]
Pressure (altimeter): 29.73 inches Hg (1007.0 mb)
Winds: from the S (170 degrees) at 6 MPH (5 knots; 2.6 m/s)
Visibility: 3 miles ( 5 km)
Ceiling: 2000 feet AGL
Clouds: broken clouds at 2000 feet AGL
Weather: HZ  (haze)

METAR text: VYMD 172230Z 12003KT 5000 HZ SCT020 25/19 Q1006
Conditions at: VYMD (MANDALAY , MM) observed 2230 UTC 17 April 2019
Temperature: 25.0°C (77°F)
Dewpoint: 19.0°C (66°F) [RH = 69%]
Pressure (altimeter): 29.70 inches Hg (1006.0 mb)
Winds: from the ESE (120 degrees) at 3 MPH (3 knots; 1.5 m/s)
Visibility: 3 miles ( 5 km)
Ceiling: at least 12,000 feet AGL
Clouds: scattered clouds at 2000 feet AGL
Weather: HZ  (haze)

METAR text: VYMD 171630Z 14005KT 5000 HZ SCT020 30/18 Q1008
Conditions at: VYMD (MANDALAY , MM) observed 1630 UTC 17 April 2019
Temperature: 30.0°C (86°F)
Dewpoint: 18.0°C (64°F) [RH = 49%]
Pressure (altimeter): 29.76 inches Hg (1008.0 mb)
Winds: from the SE (140 degrees) at 6 MPH (5 knots; 2.6 m/s)
Visibility: 3 miles ( 5 km)
Ceiling: at least 12,000 feet AGL
Clouds: scattered clouds at 2000 feet AGL
Weather: HZ  (haze)

METAR text: VYMD 171530Z 16010G25KT 5000 HZ SCT020 31/18 Q1008
Conditions at: VYMD (MANDALAY , MM) observed 1530 UTC 17 April 2019
Temperature: 31.0°C (88°F)
Dewpoint: 18.0°C (64°F) [RH = 46%]
Pressure (altimeter): 29.76 inches Hg (1008.0 mb)
Winds: from the SSE (160 degrees) at 12 MPH (10 knots; 5.1 m/s)
gusting to 29 MPH (25 knots; 12.9 m/s)
Visibility: 3 miles ( 5 km)
Ceiling: at least 12,000 feet AGL
Clouds: scattered clouds at 2000 feet AGL
Weather: HZ  (haze)

METAR text: VYMD 171430Z 18008G20KT 5000 HZ SCT020 33/15 Q1007
Conditions at: VYMD (MANDALAY , MM) observed 1430 UTC 17 April 2019
Temperature: 33.0°C (91°F)
Dewpoint: 15.0°C (59°F) [RH = 34%]
Pressure (altimeter): 29.73 inches Hg (1007.0 mb)
Winds: from the S (180 degrees) at 9 MPH (8 knots; 4.1 m/s)
gusting to 23 MPH (20 knots; 10.3 m/s)
Visibility: 3 miles ( 5 km)
Ceiling: at least 12,000 feet AGL
Clouds: scattered clouds at 2000 feet AGL
Weather: HZ  (haze)

METAR text: VYMD 171330Z 32003KT 5000 HZ BKN020 FEW120 33/21 Q1005
Conditions at: VYMD (MANDALAY , MM) observed 1330 UTC 17 April 2019
Temperature: 33.0°C (91°F)
Dewpoint: 21.0°C (70°F) [RH = 49%]
Pressure (altimeter): 29.68 inches Hg (1005.0 mb)
Winds: from the NW (320 degrees) at 3 MPH (3 knots; 1.5 m/s)
Visibility: 3 miles ( 5 km)
Ceiling: 2000 feet AGL
Clouds: broken clouds at 2000 feet AGL
few clouds at 12000 feet AGL
Weather: HZ  (haze)

METAR text: VYMD 171230Z 34003KT 5000 HZ BKN020 SCT120 36/21 Q1005
Conditions at: VYMD (MANDALAY , MM) observed 1230 UTC 17 April 2019
Temperature: 36.0°C (97°F)
Dewpoint: 21.0°C (70°F) [RH = 42%]
Pressure (altimeter): 29.68 inches Hg (1005.0 mb)
Winds: from the NNW (340 degrees) at 3 MPH (3 knots; 1.5 m/s)
Visibility: 3 miles ( 5 km)
Ceiling: 2000 feet AGL
Clouds: broken clouds at 2000 feet AGL
scattered clouds at 12000 feet AGL
Weather: HZ  (haze)

METAR text: VYMD 171130Z 36008KT 5000 HZ BKN020 SCT120 38/20 Q1004
Conditions at: VYMD (MANDALAY , MM) observed 1130 UTC 17 April 2019
Temperature: 38.0°C (100°F)
Dewpoint: 20.0°C (68°F) [RH = 35%]
Pressure (altimeter): 29.65 inches Hg (1004.0 mb)
Winds: from the N (360 degrees) at 9 MPH (8 knots; 4.1 m/s)
Visibility: 3 miles ( 5 km)
Ceiling: 2000 feet AGL
Clouds: broken clouds at 2000 feet AGL
scattered clouds at 12000 feet AGL
Weather: HZ  (haze)

METAR text: VYMD 171030Z 32010KT 7000 SCT020 FEW120 39/18 Q1004
Conditions at: VYMD (MANDALAY , MM) observed 1030 UTC 17 April 2019
Temperature: 39.0°C (102°F)
Dewpoint: 18.0°C (64°F) [RH = 30%]
Pressure (altimeter): 29.65 inches Hg (1004.0 mb)
Winds: from the NW (320 degrees) at 12 MPH (10 knots; 5.1 m/s)
Visibility: 4 miles ( 7 km)
Ceiling: at least 12,000 feet AGL
Clouds: scattered clouds at 2000 feet AGL
few clouds at 12000 feet AGL
Weather: no significant weather observed at this time

METAR text: VYMD 170930Z 30007G15KT 8000 NSC 41/21 Q1005
Conditions at: VYMD (MANDALAY , MM) observed 0930 UTC 17 April 2019
Temperature: 41.0°C (106°F)
Dewpoint: 21.0°C (70°F) [RH = 32%]
Pressure (altimeter): 29.68 inches Hg (1005.0 mb)
Winds: from the WNW (300 degrees) at 8 MPH (7 knots; 3.6 m/s)
gusting to 17 MPH (15 knots; 7.7 m/s)
Visibility: 5 miles ( 8 km)
Ceiling: at least 12,000 feet AGL
Clouds: sky clear below 12,000 feet AGL
Weather: no significant weather observed at this time

METAR text: VYMD 170830Z 32008G15KT 8000 NSC 41/18 Q1006
Conditions at: VYMD (MANDALAY , MM) observed 0830 UTC 17 April 2019
Temperature: 41.0°C (106°F)
Dewpoint: 18.0°C (64°F) [RH = 27%]
Pressure (altimeter): 29.70 inches Hg (1006.0 mb)
Winds: from the NW (320 degrees) at 9 MPH (8 knots; 4.1 m/s)
gusting to 17 MPH (15 knots; 7.7 m/s)
Visibility: 5 miles ( 8 km)
Ceiling: at least 12,000 feet AGL
Clouds: sky clear below 12,000 feet AGL
Weather: no significant weather observed at this time

METAR text: VYMD 170730Z 36008G20KT 8000 NSC 41/18 Q1008
Conditions at: VYMD (MANDALAY , MM) observed 0730 UTC 17 April 2019
Temperature: 41.0°C (106°F)
Dewpoint: 18.0°C (64°F) [RH = 27%]
Pressure (altimeter): 29.76 inches Hg (1008.0 mb)
Winds: from the N (360 degrees) at 9 MPH (8 knots; 4.1 m/s)
gusting to 23 MPH (20 knots; 10.3 m/s)
Visibility: 5 miles ( 8 km)
Ceiling: at least 12,000 feet AGL
Clouds: sky clear below 12,000 feet AGL
Weather: no significant weather observed at this time